Time;durP1;ratioP1;P1;durP2;ratioP2;P2;SDS_P1;SDS_P2;PMS_P1;PMS_P2;Temp;Humidity;BMP_temperature;BMP_pressure;BME280_temperature;BME280_humidity;BME280_pressure;Samples;Min_cycle;Max_cycle;Signal;HPM_P1;HPM_P2
2023/05/04 00:01:22;;;;;;;12.55;5.10;;;6.40;99.90;;;;;;4937031;29;20106;-87
2023/05/04 00:04:06;;;;;;;13.20;5.30;;;5.60;99.90;;;;;;4936782;29;20480;-87
2023/05/04 00:06:41;;;;;;;11.50;4.75;;;5.70;99.90;;;;;;4937227;29;20095;-87
2023/05/04 00:09:07;;;;;;;13.45;5.40;;;5.80;99.90;;;;;;4937258;29;20126;-87
2023/05/04 00:15:40;;;;;;;13.20;5.00;;;4.90;99.90;;;;;;4978853;28;20101;-87
2023/05/04 00:18:18;;;;;;;13.40;5.75;;;7.00;99.90;;;;;;4964628;28;20102;-87
2023/05/04 00:20:45;;;;;;;12.00;5.70;;;7.00;99.90;;;;;;4959244;28;20062;-87
2023/05/04 00:23:29;;;;;;;17.07;6.97;;;5.40;99.90;;;;;;4982179;28;20127;-87
2023/05/04 00:25:56;;;;;;;13.85;5.50;;;5.80;99.90;;;;;;4984163;28;20063;-87
2023/05/04 00:28:22;;;;;;;14.10;5.95;;;5.90;99.90;;;;;;4975160;28;20069;-87
2023/05/04 00:30:48;;;;;;;13.43;5.75;;;6.10;99.90;;;;;;4975337;28;20129;-87
2023/05/04 00:33:13;;;;;;;13.67;6.03;;;5.90;99.90;;;;;;4958257;28;20051;-87
2023/05/04 00:35:39;;;;;;;11.63;5.70;;;4.60;99.90;;;;;;4961265;28;20043;-87
2023/05/04 00:38:05;;;;;;;14.97;6.37;;;5.90;99.90;;;;;;4985477;28;20051;-87
2023/05/04 00:40:46;;;;;;;15.48;6.15;;;6.50;99.90;;;;;;4975909;28;20070;-87
2023/05/04 00:43:14;;;;;;;12.40;5.38;;;5.00;99.90;;;;;;4975065;28;20042;-87
2023/05/04 00:45:40;;;;;;;15.87;6.43;;;5.30;99.90;;;;;;4975732;28;20126;-87
2023/05/04 00:49:02;;;;;;;16.80;6.47;;;6.40;99.90;;;;;;4958113;28;20102;-87
2023/05/04 00:51:37;;;;;;;15.25;6.25;;;4.90;99.90;;;;;;4974343;28;20058;-87
2023/05/04 00:54:04;;;;;;;14.32;6.40;;;5.20;99.90;;;;;;4975903;28;20051;-87
2023/05/04 00:56:42;;;;;;;13.30;6.37;;;4.90;99.90;;;;;;4957562;28;20051;-87
2023/05/04 00:59:07;;;;;;;14.93;6.47;;;6.10;99.90;;;;;;4974442;28;20085;-87
2023/05/04 01:01:45;;;;;;;14.38;6.28;;;5.10;99.90;;;;;;4958033;28;20085;-87
2023/05/04 01:04:11;;;;;;;14.53;6.10;;;4.80;99.90;;;;;;4974607;28;20043;-87
2023/05/04 01:06:59;;;;;;;16.10;6.57;;;6.20;99.90;;;;;;4957825;28;20520;-87
2023/05/04 01:09:30;;;;;;;16.15;6.72;;;5.20;99.90;;;;;;4955865;29;20051;-87
2023/05/04 01:12:06;;;;;;;13.50;6.28;;;5.30;99.90;;;;;;4973176;28;20573;-87
2023/05/04 01:14:36;;;;;;;14.25;6.57;;;5.50;99.90;;;;;;4975177;28;20097;-87
2023/05/04 01:17:06;;;;;;;16.27;7.53;;;5.80;99.90;;;;;;4975074;28;20069;-87
2023/05/04 01:19:32;;;;;;;14.00;6.50;;;5.10;99.90;;;;;;4938296;29;20078;-87
2023/05/04 01:21:58;;;;;;;15.32;7.03;;;5.50;99.90;;;;;;4955796;28;20111;-87
2023/05/04 01:24:36;;;;;;;14.15;6.93;;;5.90;99.90;;;;;;4956681;28;20059;-86
2023/05/04 01:27:06;;;;;;;15.10;6.50;;;4.90;99.90;;;;;;4958045;28;20049;-87
2023/05/04 01:29:32;;;;;;;15.50;6.95;;;5.20;99.90;;;;;;4960434;28;20047;-86
2023/05/04 01:31:58;;;;;;;16.50;7.23;;;4.40;99.90;;;;;;4974976;28;20051;-87
2023/05/04 01:34:24;;;;;;;15.57;6.70;;;5.20;99.90;;;;;;4956906;28;20482;-88
2023/05/04 01:37:00;;;;;;;13.80;6.67;;;5.70;99.90;;;;;;4975978;28;20062;-87
2023/05/04 01:39:41;;;;;;;14.27;6.80;;;5.20;99.90;;;;;;4956443;28;20105;-87
2023/05/04 01:42:07;;;;;;;16.17;7.70;;;6.00;99.90;;;;;;4974210;28;20042;-87
2023/05/04 01:44:41;;;;;;;16.50;6.85;;;4.90;99.90;;;;;;4979426;28;20056;-86
2023/05/04 01:47:25;;;;;;;14.93;6.82;;;5.00;99.90;;;;;;4980829;28;20043;-87
2023/05/04 01:50:04;;;;;;;17.27;7.20;;;4.40;99.90;;;;;;4958442;28;20046;-87
2023/05/04 01:52:30;;;;;;;14.95;7.13;;;4.90;99.90;;;;;;4980895;28;20129;-86
2023/05/04 01:55:02;;;;;;;14.98;7.10;;;5.50;99.90;;;;;;4958589;28;20044;-86
2023/05/04 01:57:40;;;;;;;15.83;6.70;;;4.90;99.90;;;;;;4973868;28;20490;-88
2023/05/04 02:00:06;;;;;;;15.93;6.65;;;5.30;99.90;;;;;;4976264;28;20035;-87
2023/05/04 02:02:32;;;;;;;16.73;6.93;;;4.90;99.90;;;;;;4956274;28;20051;-88
2023/05/04 02:05:13;;;;;;;14.10;6.68;;;5.60;99.90;;;;;;4977424;28;20038;-86
2023/05/04 02:07:41;;;;;;;14.50;6.90;;;4.90;99.90;;;;;;4977884;29;20039;-86
2023/05/04 02:10:14;;;;;;;14.48;7.28;;;6.80;99.90;;;;;;4966601;28;20530;-88
2023/05/04 02:12:43;;;;;;;13.13;6.87;;;4.90;99.90;;;;;;4958548;29;20403;-87
2023/05/04 02:15:09;;;;;;;14.63;7.20;;;5.30;99.90;;;;;;4938339;28;20414;-87
2023/05/04 02:17:34;;;;;;;17.47;7.03;;;4.90;99.90;;;;;;4937949;29;20051;-86
2023/05/04 02:20:00;;;;;;;15.13;7.57;;;4.70;99.90;;;;;;4938238;29;20061;-87
2023/05/04 02:26:12;;;;;;;17.03;7.70;;;5.00;99.90;;;;;;4973572;28;20047;-87
2023/05/04 02:28:47;;;;;;;16.87;7.03;;;4.90;99.90;;;;;;4973729;28;20039;-87
2023/05/04 02:31:33;;;;;;;16.42;7.35;;;5.40;99.90;;;;;;4975604;28;20047;-86
2023/05/04 02:33:59;;;;;;;18.60;8.00;;;4.50;99.90;;;;;;4957246;28;20521;-87
2023/05/04 02:36:25;;;;;;;16.90;7.60;;;4.70;99.90;;;;;;4955239;28;20495;-87
2023/05/04 02:38:59;;;;;;;17.27;7.88;;;6.00;99.90;;;;;;4974233;28;20035;-87
2023/05/04 02:41:25;;;;;;;18.08;7.72;;;4.30;99.90;;;;;;4974084;28;20038;-87
2023/05/04 02:44:16;;;;;;;;;;;;;;;;;;;;;
2023/05/04 02:46:51;;;;;;;20.27;8.17;;;6.10;99.90;;;;;;4956563;28;20058;-87
2023/05/04 02:49:20;;;;;;;17.67;7.53;;;6.10;99.90;;;;;;4972297;28;20379;-87
2023/05/04 02:51:46;;;;;;;15.55;7.15;;;5.00;99.90;;;;;;4958311;28;20143;-86
2023/05/04 02:55:08;;;;;;;18.33;7.60;;;6.40;99.90;;;;;;4959945;28;20134;-87
2023/05/04 02:57:49;;;;;;;18.43;7.83;;;3.90;99.90;;;;;;4959220;28;20055;-86
2023/05/04 03:00:15;;;;;;;16.30;7.50;;;5.80;99.90;;;;;;4976993;28;20054;-87
2023/05/04 03:02:41;;;;;;;19.10;7.80;;;4.80;99.90;;;;;;4977505;28;20446;-87
2023/05/04 03:05:07;;;;;;;17.00;7.43;;;5.30;99.90;;;;;;4959155;28;20093;-87
2023/05/04 03:07:32;;;;;;;19.20;8.18;;;4.80;99.90;;;;;;4977523;28;20053;-87
2023/05/04 03:10:18;;;;;;;20.80;8.50;;;4.80;99.90;;;;;;4977590;28;20445;-87
2023/05/04 03:12:44;;;;;;;15.27;7.60;;;4.60;99.90;;;;;;4959247;28;20055;-87
2023/05/04 03:15:10;;;;;;;17.85;8.27;;;5.00;99.90;;;;;;4964692;28;20058;-87
2023/05/04 03:17:51;;;;;;;19.48;8.07;;;5.10;99.90;;;;;;4977994;28;20042;-87
2023/05/04 03:20:17;;;;;;;18.73;8.00;;;5.00;99.90;;;;;;4978216;28;20069;-87
2023/05/04 03:23:01;;;;;;;17.97;7.63;;;5.20;99.90;;;;;;4986036;28;20506;-87
2023/05/04 03:25:27;;;;;;;16.63;7.87;;;4.80;99.90;;;;;;4959821;28;20087;-87
2023/05/04 03:27:53;;;;;;;18.77;8.82;;;4.20;99.90;;;;;;4959681;28;20046;-87
2023/05/04 03:30:24;;;;;;;18.00;7.80;;;6.30;99.90;;;;;;4959539;28;20046;-87
2023/05/04 03:32:50;;;;;;;18.42;7.82;;;4.60;99.90;;;;;;4978399;28;20053;-88
2023/05/04 03:35:16;;;;;;;17.35;7.65;;;5.50;99.90;;;;;;4977648;28;20382;-87
2023/05/04 03:37:41;;;;;;;15.30;6.70;;;4.80;99.90;;;;;;4977253;28;20493;-87
2023/05/04 03:40:21;;;;;;;16.07;7.40;;;4.80;99.90;;;;;;4968588;28;20095;-87
2023/05/04 03:42:48;;;;;;;17.95;7.28;;;5.00;99.90;;;;;;4979604;28;20187;-87
2023/05/04 03:45:27;;;;;;;17.08;7.38;;;4.50;99.90;;;;;;4959418;28;20054;-87
2023/05/04 03:48:05;;;;;;;20.87;8.37;;;5.30;99.90;;;;;;4958967;28;20050;-87
2023/05/04 03:50:31;;;;;;;20.33;8.30;;;4.90;99.90;;;;;;4977093;28;20047;-87
2023/05/04 03:52:56;;;;;;;16.98;7.93;;;4.50;99.90;;;;;;4976121;28;20047;-87
2023/05/04 03:55:25;;;;;;;16.08;7.57;;;4.50;99.90;;;;;;4959362;28;20051;-87
2023/05/04 03:57:51;;;;;;;17.70;7.70;;;6.40;99.90;;;;;;4959016;28;20054;-86
2023/05/04 04:00:17;;;;;;;19.10;7.37;;;4.90;99.90;;;;;;4974699;28;20378;-87
2023/05/04 04:02:43;;;;;;;17.70;7.57;;;4.90;99.90;;;;;;4954149;28;20121;-86
2023/05/04 04:05:17;;;;;;;18.97;8.10;;;4.60;99.90;;;;;;4976327;28;20570;-87
2023/05/04 04:07:43;;;;;;;17.67;7.47;;;5.00;99.90;;;;;;5196036;23;20069;-87
2023/05/04 04:10:09;;;;;;;17.15;7.57;;;5.10;99.90;;;;;;4958552;28;20043;-87
2023/05/04 04:12:56;;;;;;;18.38;7.45;;;4.90;99.90;;;;;;4958880;28;20051;-87
2023/05/04 04:15:34;;;;;;;19.20;7.43;;;5.00;99.90;;;;;;4975512;28;20074;-86
2023/05/04 04:18:06;;;;;;;17.50;7.87;;;4.90;99.90;;;;;;4958910;28;20069;-87
2023/05/04 04:20:52;;;;;;;15.38;7.75;;;4.90;99.90;;;;;;4976061;28;20054;-86
2023/05/04 04:23:33;;;;;;;17.60;7.50;;;5.60;99.90;;;;;;4867249;28;20098;-86
2023/05/04 04:25:58;;;;;;;19.53;7.97;;;5.70;99.90;;;;;;4958734;28;20047;-86
2023/05/04 04:28:39;;;;;;;15.68;7.93;;;4.70;99.90;;;;;;4976142;28;20354;-86
2023/05/04 04:31:11;;;;;;;19.58;7.80;;;4.80;99.90;;;;;;4960152;28;20039;-86
2023/05/04 04:36:29;;;;;;;18.20;7.40;;;5.00;99.90;;;;;;4998694;23;20081;-87
2023/05/04 04:39:15;;;;;;;17.57;7.50;;;5.10;99.90;;;;;;4996681;28;20042;-86
2023/05/04 04:41:41;;;;;;;16.13;8.17;;;4.90;99.90;;;;;;4998019;28;20088;-87
2023/05/04 04:44:16;;;;;;;16.90;7.22;;;4.90;99.90;;;;;;5000170;28;20034;-87
2023/05/04 04:50:41;;;;;;;16.75;7.95;;;4.20;99.90;;;;;;5016251;28;20102;-87
2023/05/04 04:53:07;;;;;;;17.57;7.30;;;4.60;99.90;;;;;;4997031;28;20525;-87
2023/05/04 04:55:33;;;;;;;17.10;7.87;;;5.80;99.90;;;;;;4996250;28;20054;-87
2023/05/04 04:58:07;;;;;;;17.27;7.77;;;6.50;99.90;;;;;;4976653;28;20097;-87
2023/05/04 05:00:34;;;;;;;;;;;5.20;99.90;;;;;;4995900;28;20130;-86
2023/05/04 05:03:00;;;;;;;15.95;7.30;;;6.10;99.90;;;;;;4995904;28;19922;-87
2023/05/04 05:05:26;;;;;;;18.52;7.72;;;5.60;99.90;;;;;;5004053;28;20081;-87
2023/05/04 05:08:07;;;;;;;19.88;8.57;;;5.50;99.90;;;;;;5012678;28;20043;-87
2023/05/04 05:10:33;;;;;;;16.60;7.70;;;5.30;99.90;;;;;;4995336;28;20557;-87
2023/05/04 05:13:14;;;;;;;17.57;7.83;;;5.70;99.90;;;;;;4986975;28;20078;-87
2023/05/04 05:15:58;;;;;;;16.25;7.97;;;4.90;99.90;;;;;;4994831;28;20053;-87
2023/05/04 05:18:28;;;;;;;16.73;7.93;;;4.90;99.90;;;;;;4993732;28;20048;-87
2023/05/04 05:20:55;;;;;;;17.05;7.90;;;5.80;99.90;;;;;;4994644;28;20042;-86
2023/05/04 05:26:30;;;;;;;18.55;7.85;;;5.20;99.90;;;;;;4992539;28;20093;-87
2023/05/04 05:29:47;;;;;;;17.60;7.70;;;6.20;99.90;;;;;;4997127;23;20058;-87
2023/05/04 05:32:38;;;;;;;17.40;8.27;;;5.70;99.90;;;;;;4956053;28;20126;-87
2023/05/04 05:35:24;;;;;;;15.57;7.22;;;5.70;99.90;;;;;;4957256;28;20053;-87
2023/05/04 05:37:50;;;;;;;16.63;7.93;;;5.50;99.90;;;;;;4882132;28;20125;-87
2023/05/04 05:40:31;;;;;;;16.13;7.40;;;6.20;99.90;;;;;;4957211;28;20050;-87
2023/05/04 05:43:06;;;;;;;17.35;8.15;;;5.80;99.90;;;;;;4976696;28;20046;-86
2023/05/04 05:45:50;;;;;;;18.58;8.23;;;5.80;99.90;;;;;;4974183;28;20042;-87
2023/05/04 05:48:25;;;;;;;17.15;8.10;;;6.00;99.90;;;;;;4956668;28;20043;-87
2023/05/04 05:51:06;;;;;;;17.13;7.65;;;7.50;99.90;;;;;;4974800;28;20053;-87
2023/05/04 05:53:31;;;;;;;17.17;8.15;;;7.10;99.90;;;;;;4974061;28;20101;-87
2023/05/04 05:55:58;;;;;;;18.13;8.30;;;7.40;99.90;;;;;;4957643;28;20050;-87
2023/05/04 05:58:24;;;;;;;15.20;7.32;;;6.70;99.90;;;;;;4957173;28;20470;-86
2023/05/04 06:00:49;;;;;;;17.58;7.68;;;6.40;99.90;;;;;;4957061;28;20057;-86
2023/05/04 06:03:18;;;;;;;16.63;8.13;;;6.10;99.90;;;;;;4956700;28;20417;-86
2023/05/04 06:05:44;;;;;;;18.15;8.23;;;6.50;99.90;;;;;;4974498;28;20431;-87
2023/05/04 06:08:15;;;;;;;19.15;8.70;;;7.00;99.90;;;;;;4973199;28;20047;-87
2023/05/04 06:10:41;;;;;;;20.95;8.32;;;6.80;99.90;;;;;;4961714;28;20078;-86
2023/05/04 06:13:07;;;;;;;16.20;7.70;;;6.40;99.90;;;;;;4983457;28;20426;-87
2023/05/04 06:15:36;;;;;;;18.08;7.68;;;7.20;99.90;;;;;;4974737;28;20445;-86
2023/05/04 06:18:02;;;;;;;15.95;7.97;;;8.10;99.90;;;;;;4977859;28;20050;-81
2023/05/04 06:20:36;;;;;;;17.33;8.23;;;7.00;99.90;;;;;;4958338;28;20047;-83
2023/05/04 06:23:02;;;;;;;20.13;8.60;;;6.70;99.90;;;;;;4973333;28;20482;-81
2023/05/04 06:25:43;;;;;;;16.67;8.13;;;7.30;99.90;;;;;;4956955;28;20109;-80
2023/05/04 06:28:08;;;;;;;20.00;7.80;;;7.10;99.90;;;;;;4976275;28;20429;-82
2023/05/04 06:30:35;;;;;;;16.55;8.57;;;7.90;99.90;;;;;;4960268;28;20059;-81
2023/05/04 06:33:01;;;;;;;17.17;8.10;;;7.30;99.90;;;;;;4959922;28;20094;-81
2023/05/04 06:35:44;;;;;;;17.77;8.65;;;7.30;99.90;;;;;;4959627;28;20129;-82
2023/05/04 06:38:27;;;;;;;15.73;7.57;;;7.10;99.90;;;;;;4977370;28;20046;-81
2023/05/04 06:40:53;;;;;;;19.10;8.63;;;7.90;99.90;;;;;;4978067;28;20043;-83
2023/05/04 06:43:19;;;;;;;15.32;7.97;;;6.50;99.90;;;;;;4977132;28;20039;-84
2023/05/04 06:45:44;;;;;;;15.30;7.80;;;8.10;99.90;;;;;;4960426;28;20043;-84
2023/05/04 06:48:26;;;;;;;15.77;8.20;;;7.50;99.90;;;;;;4960325;28;20051;-82
2023/05/04 06:50:55;;;;;;;17.52;8.50;;;7.30;99.90;;;;;;4976620;28;20045;-83
2023/05/04 06:53:20;;;;;;;14.80;7.43;;;7.80;99.90;;;;;;4959308;28;20039;-83
2023/05/04 06:56:02;;;;;;;14.45;7.60;;;8.20;99.90;;;;;;4976802;28;20039;-83
2023/05/04 06:58:28;;;;;;;14.43;7.35;;;8.20;99.90;;;;;;4959512;28;20502;-83
2023/05/04 07:00:56;;;;;;;15.13;7.82;;;9.10;99.90;;;;;;4976888;28;20122;-83
2023/05/04 07:03:44;;;;;;;15.27;7.65;;;9.50;99.90;;;;;;4958424;28;20086;-85
2023/05/04 07:06:10;;;;;;;16.33;7.55;;;8.20;99.90;;;;;;4959269;28;20097;-88
2023/05/04 07:08:50;;;;;;;16.38;7.75;;;9.10;99.90;;;;;;4959835;28;20059;-83
2023/05/04 07:11:17;;;;;;;16.98;7.65;;;8.50;99.90;;;;;;4975964;28;20393;-83
2023/05/04 07:14:07;;;;;;;16.00;7.85;;;9.10;99.90;;;;;;4965913;28;20133;-81
2023/05/04 07:16:49;;;;;;;15.25;7.93;;;9.80;99.90;;;;;;4976634;28;20435;-81
2023/05/04 07:19:15;;;;;;;16.25;7.50;;;8.60;99.90;;;;;;4955674;28;20158;-83
2023/05/04 07:21:54;;;;;;;16.73;8.30;;;9.40;99.90;;;;;;4959079;28;20497;-83
2023/05/04 07:24:27;;;;;;;16.42;7.97;;;10.60;99.90;;;;;;4956070;28;20061;-82
2023/05/04 07:26:53;;;;;;;15.15;7.82;;;10.20;99.90;;;;;;4959414;28;20487;-81
2023/05/04 07:29:18;;;;;;;14.93;7.40;;;11.20;99.90;;;;;;4974530;28;20142;-81
2023/05/04 07:32:00;;;;;;;14.02;7.38;;;10.80;99.90;;;;;;4975778;28;20054;-80
2023/05/04 07:34:26;;;;;;;14.35;7.72;;;9.90;99.90;;;;;;4976063;28;20067;-81
2023/05/04 07:36:52;;;;;;;16.30;7.72;;;9.90;99.90;;;;;;4975965;28;20119;-81
2023/05/04 07:39:37;;;;;;;13.63;7.35;;;10.10;99.90;;;;;;4976334;28;20042;-81
2023/05/04 07:42:15;;;;;;;13.98;7.60;;;10.50;99.90;;;;;;4967742;28;20051;-81
2023/05/04 07:44:41;;;;;;;13.27;7.55;;;11.60;99.90;;;;;;4959196;28;20530;-80
2023/05/04 07:47:16;;;;;;;14.55;7.72;;;11.20;99.90;;;;;;4976343;28;20185;-81
2023/05/04 07:52:10;;;;;;;14.25;7.30;;;10.70;99.90;;;;;;4992531;28;20046;-82
2023/05/04 07:54:36;;;;;;;13.50;7.68;;;10.80;99.90;;;;;;4995326;28;20093;-82
2023/05/04 07:57:02;;;;;;;15.18;7.40;;;11.00;99.90;;;;;;4978312;28;20053;-83
2023/05/04 07:59:29;;;;;;;13.15;7.30;;;11.10;99.90;;;;;;4977107;28;20050;-82
2023/05/04 08:01:54;;;;;;;15.10;7.47;;;11.20;99.90;;;;;;4978008;28;20047;-82
2023/05/04 08:04:22;;;;;;;14.20;7.35;;;11.30;99.90;;;;;;4995876;28;20045;-82
2023/05/04 08:06:48;;;;;;;15.60;7.45;;;12.80;99.90;;;;;;4980734;28;20081;-83
2023/05/04 08:09:15;;;;;;;13.07;6.60;;;11.50;99.90;;;;;;4979503;28;20521;-83
2023/05/04 08:11:40;;;;;;;14.68;7.47;;;11.60;99.90;;;;;;4978498;28;20050;-82
2023/05/04 08:14:07;;;;;;;12.13;6.97;;;12.40;99.90;;;;;;4980757;28;20096;-82
2023/05/04 08:16:32;;;;;;;14.30;7.10;;;12.80;99.90;;;;;;4978053;28;20050;-82
2023/05/04 08:19:01;;;;;;;16.17;7.50;;;12.00;99.90;;;;;;4977892;28;20073;-84
2023/05/04 08:21:27;;;;;;;13.60;7.00;;;12.40;99.90;;;;;;4994651;28;20039;-84
2023/05/04 08:23:53;;;;;;;13.70;7.25;;;12.40;99.90;;;;;;4977715;28;20057;-84
2023/05/04 08:26:22;;;;;;;17.02;7.50;;;12.40;99.90;;;;;;4994591;28;20097;-84
2023/05/04 08:28:47;;;;;;;13.80;7.28;;;12.50;99.90;;;;;;4976758;28;20056;-84
2023/05/04 08:31:25;;;;;;;14.43;6.43;;;13.70;99.90;;;;;;4977278;28;20462;-82
2023/05/04 08:34:06;;;;;;;13.43;6.60;;;12.80;99.90;;;;;;4976388;28;20101;-84
2023/05/04 08:36:45;;;;;;;11.88;5.63;;;12.90;99.90;;;;;;4994072;28;20465;-83
2023/05/04 08:39:11;;;;;;;13.75;6.97;;;13.20;99.90;;;;;;4994934;28;20042;-85
2023/05/04 08:41:40;;;;;;;12.90;6.28;;;14.60;99.90;;;;;;4977462;28;20053;-84
2023/05/04 08:44:10;;;;;;;12.82;6.53;;;14.40;99.90;;;;;;4976980;28;20046;-84
2023/05/04 08:46:40;;;;;;;12.45;6.30;;;14.20;99.90;;;;;;4995349;28;20121;-84
2023/05/04 08:49:11;;;;;;;13.23;7.05;;;14.60;99.90;;;;;;4975210;28;20397;-84
2023/05/04 08:51:37;;;;;;;12.20;6.20;;;13.70;99.90;;;;;;4973783;28;20454;-83
2023/05/04 08:54:28;;;;;;;13.43;6.35;;;14.40;99.90;;;;;;4969930;28;20052;-83
2023/05/04 08:56:55;;;;;;;11.95;5.72;;;14.00;99.90;;;;;;4954012;29;20491;-85
2023/05/04 08:59:22;;;;;;;13.40;6.35;;;14.80;99.90;;;;;;4954286;28;20062;-84
2023/05/04 09:02:00;;;;;;;11.95;6.45;;;14.50;99.90;;;;;;4955763;29;20479;-85
2023/05/04 09:04:30;;;;;;;12.80;6.07;;;14.30;99.90;;;;;;4955205;29;20113;-84
2023/05/04 09:07:05;;;;;;;12.50;6.65;;;14.90;99.90;;;;;;4955724;28;20514;-85
2023/05/04 09:09:50;;;;;;;12.88;6.60;;;15.30;99.90;;;;;;4959134;29;20055;-85
2023/05/04 09:12:26;;;;;;;13.38;6.53;;;14.60;99.90;;;;;;4957577;29;20051;-85
2023/05/04 09:14:55;;;;;;;11.75;6.40;;;15.40;99.90;;;;;;4956397;29;20098;-84
2023/05/04 09:20:49;;;;;;;11.80;6.05;;;15.90;99.90;;;;;;4956256;29;20047;-85
2023/05/04 09:23:29;;;;;;;;;;;;;;;;;;;;;
2023/05/04 09:26:48;;;;;;;12.50;6.38;;;15.00;99.90;;;;;;4940150;29;20055;-83
2023/05/04 09:29:39;;;;;;;11.30;6.10;;;14.90;99.90;;;;;;4941442;28;20269;-82
2023/05/04 09:32:42;;;;;;;12.13;5.97;;;15.40;99.90;;;;;;4966072;28;20541;-84
2023/05/04 09:35:41;;;;;;;11.30;5.73;;;15.20;99.90;;;;;;4936210;23;20571;-85
2023/05/04 09:38:35;;;;;;;12.18;5.93;;;15.70;99.90;;;;;;4930878;29;20036;-85
2023/05/04 09:41:07;;;;;;;14.18;6.53;;;15.20;99.90;;;;;;4930746;29;20102;-85
2023/05/04 09:43:58;;;;;;;13.98;6.22;;;16.00;99.90;;;;;;4920145;29;20441;-82
2023/05/04 09:46:38;;;;;;;13.13;5.93;;;16.00;99.90;;;;;;4916150;29;20369;-84
2023/05/04 09:49:54;;;;;;;11.85;6.10;;;17.20;99.90;;;;;;4934020;29;20567;-84
2023/05/04 09:52:20;;;;;;;11.38;5.55;;;16.00;99.90;;;;;;4876469;29;20513;-85
2023/05/04 09:55:03;;;;;;;12.18;6.03;;;16.30;99.90;;;;;;4861971;29;20049;-85
2023/05/04 09:57:35;;;;;;;13.40;6.70;;;16.30;99.70;;;;;;4876585;29;20052;-83
2023/05/04 10:00:03;;;;;;;13.98;5.93;;;17.00;99.90;;;;;;4859520;29;20144;-84
2023/05/04 10:02:47;;;;;;;13.55;5.80;;;17.70;99.90;;;;;;4876572;29;20517;-84
2023/05/04 10:05:36;;;;;;;14.10;5.72;;;18.00;99.90;;;;;;4861111;29;20055;-83
2023/05/04 10:08:03;;;;;;;11.82;5.18;;;17.20;99.90;;;;;;4876295;29;20080;-84
2023/05/04 10:10:57;;;;;;;12.73;5.32;;;17.40;99.90;;;;;;4876181;29;20091;-84
2023/05/04 10:13:44;;;;;;;11.25;5.55;;;17.30;99.10;;;;;;4877694;29;20601;-84
2023/05/04 10:20:16;;;;;;;10.88;5.32;;;18.30;98.60;;;;;;4861632;29;20159;-83
2023/05/04 10:23:16;;;;;;;11.18;5.55;;;18.20;98.10;;;;;;4861808;29;20057;-83
2023/05/04 10:26:19;;;;;;;11.95;5.43;;;18.20;98.70;;;;;;4904504;23;20407;-83
2023/05/04 10:29:53;;;;;;;14.03;5.80;;;18.40;98.70;;;;;;4975301;28;20069;-83
2023/05/04 10:32:20;;;;;;;10.38;4.85;;;18.90;97.90;;;;;;4975126;28;20317;-82
2023/05/04 10:34:47;;;;;;;11.90;5.50;;;19.20;98.80;;;;;;4974640;28;20078;-83
2023/05/04 10:37:18;;;;;;;13.82;5.40;;;19.00;98.50;;;;;;4976317;28;20046;-83
2023/05/04 10:43:33;;;;;;;14.80;5.43;;;19.00;97.70;;;;;;4977591;28;20453;-83
2023/05/04 10:46:19;;;;;;;10.82;4.60;;;19.20;96.70;;;;;;4966018;28;20042;-83
2023/05/04 10:48:59;;;;;;;9.75;4.15;;;19.20;95.20;;;;;;4997476;28;20104;-83
2023/05/04 10:51:34;;;;;;;11.80;5.63;;;19.40;96.40;;;;;;5022474;23;20415;-82
2023/05/04 10:54:18;;;;;;;10.90;4.93;;;19.50;96.60;;;;;;4974120;28;20050;-82
2023/05/04 10:56:44;;;;;;;11.10;5.38;;;19.70;95.10;;;;;;4955635;28;20038;-82
2023/05/04 10:59:18;;;;;;;10.75;5.25;;;20.20;97.00;;;;;;4956470;28;20058;-82
2023/05/04 11:01:48;;;;;;;11.07;5.00;;;19.80;96.00;;;;;;4956521;28;20371;-82
2023/05/04 11:04:23;;;;;;;11.23;5.43;;;19.70;94.90;;;;;;4971856;28;20402;-83
2023/05/04 11:07:07;;;;;;;8.82;4.55;;;20.30;96.20;;;;;;4973794;28;20487;-82
2023/05/04 11:10:55;;;;;;;10.57;4.13;;;19.70;95.60;;;;;;4967119;28;20510;-84
2023/05/04 11:13:49;;;;;;;9.00;3.50;;;19.70;94.10;;;;;;4833172;29;20095;-85
2023/05/04 11:16:22;;;;;;;9.20;3.63;;;19.40;94.00;;;;;;4828245;29;20522;-84
2023/05/04 11:19:11;;;;;;;10.23;4.50;;;19.40;94.80;;;;;;4966514;23;20096;-84
2023/05/04 11:21:37;;;;;;;11.18;4.53;;;19.90;94.50;;;;;;4980709;28;20057;-85
2023/05/04 11:24:12;;;;;;;9.75;4.55;;;19.70;95.20;;;;;;4978428;28;20510;-84
2023/05/04 11:27:03;;;;;;;9.25;3.70;;;19.80;94.00;;;;;;4979277;28;20048;-85
2023/05/04 11:29:31;;;;;;;11.50;4.03;;;19.70;93.70;;;;;;4995489;28;20097;-85
2023/05/04 11:32:00;;;;;;;9.73;4.10;;;19.80;94.60;;;;;;4978378;28;20046;-84
2023/05/04 11:34:45;;;;;;;8.93;3.75;;;19.90;94.50;;;;;;4979038;28;20057;-86
2023/05/04 11:37:12;;;;;;;9.95;3.80;;;20.00;93.30;;;;;;4976485;28;20186;-86
2023/05/04 11:39:38;;;;;;;8.52;3.60;;;20.10;94.10;;;;;;4978436;28;20050;-86
2023/05/04 11:42:32;;;;;;;9.93;3.67;;;20.10;94.10;;;;;;4996816;28;20053;-85
2023/05/04 11:45:25;;;;;;;9.90;3.80;;;19.90;92.60;;;;;;4937441;28;20134;-85
2023/05/04 11:47:58;;;;;;;9.73;3.50;;;20.70;92.50;;;;;;4979481;28;20054;-86
2023/05/04 11:50:25;;;;;;;9.90;3.65;;;20.70;92.00;;;;;;4996267;28;20030;-86
2023/05/04 11:53:27;;;;;;;9.70;3.80;;;21.00;93.60;;;;;;4977996;28;20597;-85
2023/05/04 11:56:15;;;;;;;10.63;4.15;;;20.70;92.50;;;;;;4978261;28;20047;-86
2023/05/04 11:58:53;;;;;;;9.80;4.18;;;21.30;92.60;;;;;;4978214;28;20397;-86
2023/05/04 12:01:52;;;;;;;9.52;4.18;;;21.40;91.80;;;;;;4995892;28;20109;-84
2023/05/04 12:04:42;;;;;;;10.15;4.10;;;22.70;92.70;;;;;;4958982;28;20057;-84
2023/05/04 12:07:13;;;;;;;11.18;4.38;;;21.60;91.70;;;;;;4959157;28;20043;-83
2023/05/04 12:10:04;;;;;;;10.57;4.43;;;21.80;92.30;;;;;;4961489;28;20048;-83
2023/05/04 12:12:48;;;;;;;10.77;4.25;;;21.60;91.90;;;;;;4958167;28;20097;-83
2023/05/04 12:15:48;;;;;;;9.07;4.13;;;21.60;91.50;;;;;;4982696;28;20038;-83
2023/05/04 12:18:21;;;;;;;8.55;3.83;;;21.30;91.70;;;;;;4960712;28;20059;-84
2023/05/04 12:25:24;;;;;;;9.70;4.30;;;20.70;91.50;;;;;;4907160;29;20142;-83
2023/05/04 12:28:10;;;;;;;9.35;4.30;;;21.10;92.30;;;;;;4918599;29;20150;-83
2023/05/04 12:30:38;;;;;;;10.25;4.22;;;21.30;91.20;;;;;;4919310;29;20099;-83
2023/05/04 12:33:04;;;;;;;8.98;4.50;;;21.60;91.90;;;;;;4919380;29;20059;-84
2023/05/04 12:35:30;;;;;;;13.45;4.60;;;21.80;92.00;;;;;;4917167;29;20052;-83
2023/05/04 12:37:55;;;;;;;11.95;4.70;;;22.10;92.20;;;;;;4919318;29;20139;-84
2023/05/04 12:40:38;;;;;;;8.90;4.50;;;22.00;92.10;;;;;;4919101;29;20055;-83
2023/05/04 12:43:07;;;;;;;10.70;4.72;;;21.90;91.70;;;;;;4935273;29;20051;-81
2023/05/04 12:45:33;;;;;;;10.93;4.45;;;21.70;92.00;;;;;;4919484;29;20063;-83
2023/05/04 12:51:49;;;;;;;9.35;4.45;;;21.40;91.60;;;;;;4935069;29;20048;-84
2023/05/04 12:58:18;;;;;;;10.45;4.70;;;22.20;91.40;;;;;;4975391;28;20057;-84
2023/05/04 13:01:08;;;;;;;9.68;4.82;;;22.40;91.80;;;;;;4958349;28;20046;-84
2023/05/04 13:03:37;;;;;;;11.57;4.88;;;22.20;91.20;;;;;;4957384;28;20104;-84
2023/05/04 13:06:03;;;;;;;10.25;4.78;;;22.60;91.10;;;;;;4957725;28;20043;-83
2023/05/04 13:08:51;;;;;;;11.40;4.80;;;22.20;91.50;;;;;;4974631;28;20135;-83
2023/05/04 13:11:23;;;;;;;11.27;4.60;;;22.50;91.00;;;;;;4974375;28;20561;-83
2023/05/04 13:13:52;;;;;;;9.23;4.77;;;22.40;90.90;;;;;;4957994;28;20054;-83
2023/05/04 13:16:20;;;;;;;10.07;4.55;;;22.20;91.40;;;;;;4974095;28;20047;-83
2023/05/04 13:18:49;;;;;;;11.00;4.35;;;22.20;91.40;;;;;;4974515;28;20652;-83
2023/05/04 13:21:22;;;;;;;8.85;3.85;;;22.10;90.80;;;;;;4957174;28;20047;-83
2023/05/04 13:23:47;;;;;;;8.83;3.53;;;22.00;91.10;;;;;;4956942;28;20054;-84
2023/05/04 13:29:54;;;;;;;10.98;4.40;;;22.10;90.80;;;;;;4974311;28;20093;-83
2023/05/04 13:32:25;;;;;;;10.38;4.60;;;22.60;91.10;;;;;;4956927;28;20051;-84
2023/05/04 13:35:30;;;;;;;11.88;4.53;;;22.40;90.50;;;;;;4958895;28;20380;-81
2023/05/04 13:38:02;;;;;;;9.45;3.95;;;22.00;89.50;;;;;;4957299;28;20043;-84
2023/05/04 13:40:42;;;;;;;11.35;4.53;;;22.40;90.70;;;;;;4957019;28;20451;-84
2023/05/04 13:43:11;;;;;;;14.20;4.30;;;22.50;90.10;;;;;;4958816;28;20134;-84
2023/05/04 13:45:37;;;;;;;9.93;4.40;;;22.50;90.60;;;;;;4974683;28;20039;-81
2023/05/04 13:48:03;;;;;;;10.68;4.93;;;22.20;90.60;;;;;;4974904;28;20051;-83
2023/05/04 13:50:32;;;;;;;10.00;4.65;;;22.30;90.50;;;;;;4974458;28;20158;-83
2023/05/04 13:53:16;;;;;;;10.90;4.50;;;22.50;90.30;;;;;;4956333;28;20054;-84
2023/05/04 13:56:00;;;;;;;10.35;4.43;;;22.50;90.10;;;;;;4956937;28;20051;-83
2023/05/04 13:58:32;;;;;;;11.20;4.40;;;22.70;90.50;;;;;;4956274;28;20051;-84
2023/05/04 14:01:16;;;;;;;10.60;4.38;;;22.70;90.30;;;;;;4957248;28;20478;-81
2023/05/04 14:03:51;;;;;;;9.82;4.57;;;22.80;90.40;;;;;;4957398;28;20047;-81
2023/05/04 14:06:34;;;;;;;10.57;4.95;;;22.90;88.90;;;;;;4973565;28;20035;-84
2023/05/04 14:09:07;;;;;;;9.27;4.93;;;22.90;90.30;;;;;;4973765;28;20390;-81
2023/05/04 14:11:36;;;;;;;11.48;4.80;;;23.00;90.70;;;;;;4958868;28;20049;-83